sensor_id;sensor_type;location;lat;lon;timestamp;P1;durP1;ratioP1;P2;durP2;ratioP2
16693;SDS011;39538;52.196;9.892;2022-11-20T00:00:02;13.43;;;11.87;;
16693;SDS011;39538;52.196;9.892;2022-11-20T00:02:29;14.17;;;12.87;;
16693;SDS011;39538;52.196;9.892;2022-11-20T00:04:56;15.40;;;11.43;;
16693;SDS011;39538;52.196;9.892;2022-11-20T00:07:22;13.53;;;12.13;;
16693;SDS011;39538;52.196;9.892;2022-11-20T00:09:49;13.63;;;10.57;;
16693;SDS011;39538;52.196;9.892;2022-11-20T00:12:17;16.60;;;10.53;;
16693;SDS011;39538;52.196;9.892;2022-11-20T00:14:43;20.17;;;12.00;;
16693;SDS011;39538;52.196;9.892;2022-11-20T00:17:10;14.50;;;12.97;;
16693;SDS011;39538;52.196;9.892;2022-11-20T00:19:36;15.00;;;12.50;;
16693;SDS011;39538;52.196;9.892;2022-11-20T00:22:03;15.87;;;12.87;;
16693;SDS011;39538;52.196;9.892;2022-11-20T00:24:29;16.80;;;10.57;;
16693;SDS011;39538;52.196;9.892;2022-11-20T00:26:56;13.03;;;10.30;;
16693;SDS011;39538;52.196;9.892;2022-11-20T00:29:23;17.07;;;12.43;;
16693;SDS011;39538;52.196;9.892;2022-11-20T00:31:50;11.37;;;10.20;;
16693;SDS011;39538;52.196;9.892;2022-11-20T00:34:16;14.33;;;10.67;;
16693;SDS011;39538;52.196;9.892;2022-11-20T00:36:43;17.47;;;10.97;;
16693;SDS011;39538;52.196;9.892;2022-11-20T00:39:09;14.53;;;11.90;;
16693;SDS011;39538;52.196;9.892;2022-11-20T00:41:36;16.63;;;12.83;;
16693;SDS011;39538;52.196;9.892;2022-11-20T00:44:02;12.43;;;11.23;;
16693;SDS011;39538;52.196;9.892;2022-11-20T00:46:30;10.23;;;9.23;;
16693;SDS011;39538;52.196;9.892;2022-11-20T00:48:57;15.03;;;11.17;;
16693;SDS011;39538;52.196;9.892;2022-11-20T00:51:25;13.40;;;11.43;;
16693;SDS011;39538;52.196;9.892;2022-11-20T00:53:54;17.07;;;12.00;;
16693;SDS011;39538;52.196;9.892;2022-11-20T00:56:21;14.60;;;12.97;;
16693;SDS011;39538;52.196;9.892;2022-11-20T00:58:48;13.80;;;10.97;;
16693;SDS011;39538;52.196;9.892;2022-11-20T01:01:15;11.63;;;10.57;;
16693;SDS011;39538;52.196;9.892;2022-11-20T01:03:46;10.37;;;9.47;;
16693;SDS011;39538;52.196;9.892;2022-11-20T01:06:18;12.57;;;10.70;;
16693;SDS011;39538;52.196;9.892;2022-11-20T01:08:46;9.33;;;8.43;;
16693;SDS011;39538;52.196;9.892;2022-11-20T01:11:14;7.90;;;7.10;;
16693;SDS011;39538;52.196;9.892;2022-11-20T01:13:42;6.33;;;5.53;;
16693;SDS011;39538;52.196;9.892;2022-11-20T01:16:11;8.00;;;6.23;;
16693;SDS011;39538;52.196;9.892;2022-11-20T01:18:40;6.97;;;6.27;;
16693;SDS011;39538;52.196;9.892;2022-11-20T01:21:11;6.70;;;6.13;;
16693;SDS011;39538;52.196;9.892;2022-11-20T01:23:39;4.73;;;4.33;;
16693;SDS011;39538;52.196;9.892;2022-11-20T01:26:07;5.97;;;5.47;;
16693;SDS011;39538;52.196;9.892;2022-11-20T01:28:35;4.93;;;4.53;;
16693;SDS011;39538;52.196;9.892;2022-11-20T01:31:09;6.00;;;4.83;;
16693;SDS011;39538;52.196;9.892;2022-11-20T01:33:38;5.77;;;4.87;;
16693;SDS011;39538;52.196;9.892;2022-11-20T01:36:06;5.67;;;5.07;;
16693;SDS011;39538;52.196;9.892;2022-11-20T01:38:34;7.50;;;6.77;;
16693;SDS011;39538;52.196;9.892;2022-11-20T01:41:01;6.53;;;5.90;;
16693;SDS011;39538;52.196;9.892;2022-11-20T01:43:28;5.67;;;4.77;;
16693;SDS011;39538;52.196;9.892;2022-11-20T01:46:13;6.03;;;5.47;;
16693;SDS011;39538;52.196;9.892;2022-11-20T01:48:42;5.67;;;5.10;;
16693;SDS011;39538;52.196;9.892;2022-11-20T01:51:17;6.07;;;5.27;;
16693;SDS011;39538;52.196;9.892;2022-11-20T01:53:49;9.53;;;7.33;;
16693;SDS011;39538;52.196;9.892;2022-11-20T01:56:18;5.27;;;4.30;;
16693;SDS011;39538;52.196;9.892;2022-11-20T01:58:46;5.47;;;4.23;;
16693;SDS011;39538;52.196;9.892;2022-11-20T02:01:16;5.17;;;4.27;;
16693;SDS011;39538;52.196;9.892;2022-11-20T02:03:43;5.20;;;4.70;;
16693;SDS011;39538;52.196;9.892;2022-11-20T02:06:12;5.37;;;4.87;;
16693;SDS011;39538;52.196;9.892;2022-11-20T02:08:43;7.33;;;5.13;;
16693;SDS011;39538;52.196;9.892;2022-11-20T02:11:10;8.73;;;6.00;;
16693;SDS011;39538;52.196;9.892;2022-11-20T02:13:38;4.43;;;4.07;;
16693;SDS011;39538;52.196;9.892;2022-11-20T02:16:11;5.97;;;4.83;;
16693;SDS011;39538;52.196;9.892;2022-11-20T02:18:41;6.80;;;4.73;;
16693;SDS011;39538;52.196;9.892;2022-11-20T02:21:10;8.70;;;7.40;;
16693;SDS011;39538;52.196;9.892;2022-11-20T02:23:54;8.13;;;7.30;;
16693;SDS011;39538;52.196;9.892;2022-11-20T02:26:28;6.93;;;6.23;;
16693;SDS011;39538;52.196;9.892;2022-11-20T02:28:57;10.63;;;7.33;;
16693;SDS011;39538;52.196;9.892;2022-11-20T02:31:26;9.67;;;6.63;;
16693;SDS011;39538;52.196;9.892;2022-11-20T02:33:55;8.00;;;7.20;;
16693;SDS011;39538;52.196;9.892;2022-11-20T02:36:23;9.83;;;7.10;;
16693;SDS011;39538;52.196;9.892;2022-11-20T02:38:52;8.40;;;7.27;;
16693;SDS011;39538;52.196;9.892;2022-11-20T02:41:20;10.43;;;6.60;;
16693;SDS011;39538;52.196;9.892;2022-11-20T02:43:47;7.60;;;6.53;;
16693;SDS011;39538;52.196;9.892;2022-11-20T02:46:13;8.43;;;7.47;;
16693;SDS011;39538;52.196;9.892;2022-11-20T02:48:40;13.00;;;7.73;;
16693;SDS011;39538;52.196;9.892;2022-11-20T02:51:06;10.70;;;6.63;;
16693;SDS011;39538;52.196;9.892;2022-11-20T02:53:33;8.97;;;7.47;;
16693;SDS011;39538;52.196;9.892;2022-11-20T02:55:59;9.03;;;7.37;;
16693;SDS011;39538;52.196;9.892;2022-11-20T02:58:27;8.77;;;7.53;;
16693;SDS011;39538;52.196;9.892;2022-11-20T03:00:54;9.53;;;8.63;;
16693;SDS011;39538;52.196;9.892;2022-11-20T03:03:20;7.03;;;6.23;;
16693;SDS011;39538;52.196;9.892;2022-11-20T03:05:46;9.10;;;6.77;;
16693;SDS011;39538;52.196;9.892;2022-11-20T03:08:13;8.17;;;6.33;;
16693;SDS011;39538;52.196;9.892;2022-11-20T03:10:39;8.57;;;7.87;;
16693;SDS011;39538;52.196;9.892;2022-11-20T03:13:06;9.90;;;6.40;;
16693;SDS011;39538;52.196;9.892;2022-11-20T03:15:34;6.20;;;5.70;;
16693;SDS011;39538;52.196;9.892;2022-11-20T03:18:01;7.03;;;6.23;;
16693;SDS011;39538;52.196;9.892;2022-11-20T03:20:28;10.33;;;7.13;;
16693;SDS011;39538;52.196;9.892;2022-11-20T03:22:55;8.33;;;7.57;;
16693;SDS011;39538;52.196;9.892;2022-11-20T03:25:21;11.87;;;8.23;;
16693;SDS011;39538;52.196;9.892;2022-11-20T03:27:48;9.67;;;7.47;;
16693;SDS011;39538;52.196;9.892;2022-11-20T03:30:14;8.30;;;7.10;;
16693;SDS011;39538;52.196;9.892;2022-11-20T03:32:42;6.97;;;6.27;;
16693;SDS011;39538;52.196;9.892;2022-11-20T03:35:09;7.80;;;7.03;;
16693;SDS011;39538;52.196;9.892;2022-11-20T03:37:36;6.67;;;5.87;;
16693;SDS011;39538;52.196;9.892;2022-11-20T03:40:02;8.67;;;6.13;;
16693;SDS011;39538;52.196;9.892;2022-11-20T03:42:30;7.40;;;6.67;;
16693;SDS011;39538;52.196;9.892;2022-11-20T03:45:12;8.17;;;7.47;;
16693;SDS011;39538;52.196;9.892;2022-11-20T03:47:39;10.40;;;7.70;;
16693;SDS011;39538;52.196;9.892;2022-11-20T03:50:08;6.83;;;6.03;;
16693;SDS011;39538;52.196;9.892;2022-11-20T03:52:37;8.87;;;7.73;;
16693;SDS011;39538;52.196;9.892;2022-11-20T03:55:04;8.63;;;6.50;;
16693;SDS011;39538;52.196;9.892;2022-11-20T03:57:30;12.13;;;7.27;;
16693;SDS011;39538;52.196;9.892;2022-11-20T03:59:57;8.70;;;7.57;;
16693;SDS011;39538;52.196;9.892;2022-11-20T04:02:24;6.17;;;5.57;;
16693;SDS011;39538;52.196;9.892;2022-11-20T04:04:50;8.13;;;7.47;;
16693;SDS011;39538;52.196;9.892;2022-11-20T04:07:18;10.90;;;6.83;;
16693;SDS011;39538;52.196;9.892;2022-11-20T04:09:44;7.07;;;6.43;;
16693;SDS011;39538;52.196;9.892;2022-11-20T04:12:11;8.83;;;7.40;;
16693;SDS011;39538;52.196;9.892;2022-11-20T04:14:37;10.43;;;7.70;;
16693;SDS011;39538;52.196;9.892;2022-11-20T04:17:04;7.10;;;6.07;;
16693;SDS011;39538;52.196;9.892;2022-11-20T04:19:30;12.03;;;7.30;;
16693;SDS011;39538;52.196;9.892;2022-11-20T04:21:57;6.43;;;5.83;;
16693;SDS011;39538;52.196;9.892;2022-11-20T04:24:25;7.30;;;6.60;;
16693;SDS011;39538;52.196;9.892;2022-11-20T04:26:52;8.40;;;6.47;;
16693;SDS011;39538;52.196;9.892;2022-11-20T04:29:19;6.50;;;5.43;;
16693;SDS011;39538;52.196;9.892;2022-11-20T04:31:45;6.70;;;6.03;;
16693;SDS011;39538;52.196;9.892;2022-11-20T04:34:12;7.63;;;5.73;;
16693;SDS011;39538;52.196;9.892;2022-11-20T04:36:38;6.63;;;5.67;;
16693;SDS011;39538;52.196;9.892;2022-11-20T04:39:05;6.93;;;6.33;;
16693;SDS011;39538;52.196;9.892;2022-11-20T04:41:34;5.43;;;4.93;;
16693;SDS011;39538;52.196;9.892;2022-11-20T04:44:02;7.13;;;5.87;;
16693;SDS011;39538;52.196;9.892;2022-11-20T04:46:30;5.93;;;5.23;;
16693;SDS011;39538;52.196;9.892;2022-11-20T04:48:59;5.20;;;4.40;;
16693;SDS011;39538;52.196;9.892;2022-11-20T04:51:25;6.67;;;5.23;;
16693;SDS011;39538;52.196;9.892;2022-11-20T04:53:53;5.07;;;4.67;;
16693;SDS011;39538;52.196;9.892;2022-11-20T04:56:19;6.77;;;5.43;;
16693;SDS011;39538;52.196;9.892;2022-11-20T04:58:47;6.37;;;5.83;;
16693;SDS011;39538;52.196;9.892;2022-11-20T05:01:14;6.80;;;5.50;;
16693;SDS011;39538;52.196;9.892;2022-11-20T05:03:42;5.50;;;5.00;;
16693;SDS011;39538;52.196;9.892;2022-11-20T05:06:10;8.07;;;5.57;;
16693;SDS011;39538;52.196;9.892;2022-11-20T05:08:38;7.77;;;5.30;;
16693;SDS011;39538;52.196;9.892;2022-11-20T05:11:05;6.00;;;5.40;;
16693;SDS011;39538;52.196;9.892;2022-11-20T05:13:33;6.60;;;4.70;;
16693;SDS011;39538;52.196;9.892;2022-11-20T05:16:05;4.80;;;4.27;;
16693;SDS011;39538;52.196;9.892;2022-11-20T05:18:32;6.10;;;5.17;;
16693;SDS011;39538;52.196;9.892;2022-11-20T05:20:59;6.47;;;5.67;;
16693;SDS011;39538;52.196;9.892;2022-11-20T05:23:26;7.17;;;6.57;;
16693;SDS011;39538;52.196;9.892;2022-11-20T05:25:53;11.80;;;6.73;;
16693;SDS011;39538;52.196;9.892;2022-11-20T05:28:21;8.53;;;6.27;;
16693;SDS011;39538;52.196;9.892;2022-11-20T05:30:48;5.33;;;4.83;;
16693;SDS011;39538;52.196;9.892;2022-11-20T05:33:17;8.10;;;5.60;;
16693;SDS011;39538;52.196;9.892;2022-11-20T05:35:44;5.87;;;5.27;;
16693;SDS011;39538;52.196;9.892;2022-11-20T05:38:11;8.50;;;6.10;;
16693;SDS011;39538;52.196;9.892;2022-11-20T05:40:38;7.37;;;6.30;;
16693;SDS011;39538;52.196;9.892;2022-11-20T05:43:04;5.83;;;5.23;;
16693;SDS011;39538;52.196;9.892;2022-11-20T05:45:31;5.80;;;5.23;;
16693;SDS011;39538;52.196;9.892;2022-11-20T05:47:57;5.57;;;5.03;;
16693;SDS011;39538;52.196;9.892;2022-11-20T05:50:26;9.13;;;5.07;;
16693;SDS011;39538;52.196;9.892;2022-11-20T05:52:53;5.90;;;4.77;;
16693;SDS011;39538;52.196;9.892;2022-11-20T05:55:19;6.87;;;6.00;;
16693;SDS011;39538;52.196;9.892;2022-11-20T05:57:46;5.47;;;4.73;;
16693;SDS011;39538;52.196;9.892;2022-11-20T06:00:13;5.93;;;4.83;;
16693;SDS011;39538;52.196;9.892;2022-11-20T06:02:40;8.33;;;4.57;;
16693;SDS011;39538;52.196;9.892;2022-11-20T06:05:07;5.93;;;5.43;;
16693;SDS011;39538;52.196;9.892;2022-11-20T06:07:35;4.67;;;4.27;;
16693;SDS011;39538;52.196;9.892;2022-11-20T06:10:02;9.27;;;5.33;;
16693;SDS011;39538;52.196;9.892;2022-11-20T06:12:30;5.37;;;4.87;;
16693;SDS011;39538;52.196;9.892;2022-11-20T06:14:57;7.00;;;6.00;;
16693;SDS011;39538;52.196;9.892;2022-11-20T06:17:24;5.40;;;4.90;;
16693;SDS011;39538;52.196;9.892;2022-11-20T06:19:50;5.93;;;5.23;;
16693;SDS011;39538;52.196;9.892;2022-11-20T06:22:17;6.50;;;4.60;;
16693;SDS011;39538;52.196;9.892;2022-11-20T06:24:45;5.83;;;4.67;;
16693;SDS011;39538;52.196;9.892;2022-11-20T06:27:11;6.57;;;6.07;;
16693;SDS011;39538;52.196;9.892;2022-11-20T06:29:38;8.07;;;7.33;;
16693;SDS011;39538;52.196;9.892;2022-11-20T06:32:04;9.10;;;8.17;;
16693;SDS011;39538;52.196;9.892;2022-11-20T06:34:31;7.53;;;6.80;;
16693;SDS011;39538;52.196;9.892;2022-11-20T06:36:57;7.73;;;6.93;;
16693;SDS011;39538;52.196;9.892;2022-11-20T06:39:23;7.00;;;6.40;;
16693;SDS011;39538;52.196;9.892;2022-11-20T06:41:51;6.47;;;5.77;;
16693;SDS011;39538;52.196;9.892;2022-11-20T06:44:18;6.47;;;5.87;;
16693;SDS011;39538;52.196;9.892;2022-11-20T06:46:45;6.27;;;5.13;;
16693;SDS011;39538;52.196;9.892;2022-11-20T06:49:11;6.47;;;5.47;;
16693;SDS011;39538;52.196;9.892;2022-11-20T06:51:38;6.77;;;5.07;;
16693;SDS011;39538;52.196;9.892;2022-11-20T06:54:04;7.10;;;6.43;;
16693;SDS011;39538;52.196;9.892;2022-11-20T06:56:31;7.87;;;6.43;;
16693;SDS011;39538;52.196;9.892;2022-11-20T06:58:59;8.73;;;6.10;;
16693;SDS011;39538;52.196;9.892;2022-11-20T07:01:30;6.03;;;5.53;;
16693;SDS011;39538;52.196;9.892;2022-11-20T07:03:56;4.60;;;4.20;;
16693;SDS011;39538;52.196;9.892;2022-11-20T07:06:22;6.47;;;5.90;;
16693;SDS011;39538;52.196;9.892;2022-11-20T07:08:50;6.30;;;5.70;;
16693;SDS011;39538;52.196;9.892;2022-11-20T07:11:17;13.63;;;12.33;;
16693;SDS011;39538;52.196;9.892;2022-11-20T07:13:43;7.90;;;7.20;;
16693;SDS011;39538;52.196;9.892;2022-11-20T07:16:11;5.77;;;5.30;;
16693;SDS011;39538;52.196;9.892;2022-11-20T07:18:38;8.37;;;7.27;;
16693;SDS011;39538;52.196;9.892;2022-11-20T07:21:05;4.33;;;3.90;;
16693;SDS011;39538;52.196;9.892;2022-11-20T07:23:33;5.73;;;5.13;;
16693;SDS011;39538;52.196;9.892;2022-11-20T07:26:02;4.27;;;3.30;;
16693;SDS011;39538;52.196;9.892;2022-11-20T07:28:29;5.90;;;4.27;;
16693;SDS011;39538;52.196;9.892;2022-11-20T07:30:55;3.80;;;3.23;;
16693;SDS011;39538;52.196;9.892;2022-11-20T07:33:23;5.60;;;5.07;;
16693;SDS011;39538;52.196;9.892;2022-11-20T07:35:49;4.13;;;3.77;;
16693;SDS011;39538;52.196;9.892;2022-11-20T07:38:16;6.63;;;5.20;;
16693;SDS011;39538;52.196;9.892;2022-11-20T07:40:42;6.57;;;5.93;;
16693;SDS011;39538;52.196;9.892;2022-11-20T07:43:09;7.43;;;5.63;;
16693;SDS011;39538;52.196;9.892;2022-11-20T07:45:35;6.70;;;6.20;;
16693;SDS011;39538;52.196;9.892;2022-11-20T07:48:02;6.57;;;5.87;;
16693;SDS011;39538;52.196;9.892;2022-11-20T07:50:30;11.63;;;7.10;;
16693;SDS011;39538;52.196;9.892;2022-11-20T07:53:01;7.13;;;6.27;;
16693;SDS011;39538;52.196;9.892;2022-11-20T07:55:28;8.27;;;7.00;;
16693;SDS011;39538;52.196;9.892;2022-11-20T07:57:55;7.33;;;6.63;;
16693;SDS011;39538;52.196;9.892;2022-11-20T08:00:22;8.30;;;7.33;;
16693;SDS011;39538;52.196;9.892;2022-11-20T08:02:49;8.83;;;8.00;;
16693;SDS011;39538;52.196;9.892;2022-11-20T08:05:15;13.47;;;9.87;;
16693;SDS011;39538;52.196;9.892;2022-11-20T08:07:44;10.23;;;8.77;;
16693;SDS011;39538;52.196;9.892;2022-11-20T08:10:12;7.50;;;6.33;;
16693;SDS011;39538;52.196;9.892;2022-11-20T08:12:43;7.03;;;6.43;;
16693;SDS011;39538;52.196;9.892;2022-11-20T08:15:28;7.73;;;6.93;;
16693;SDS011;39538;52.196;9.892;2022-11-20T08:17:58;7.83;;;7.23;;
16693;SDS011;39538;52.196;9.892;2022-11-20T08:20:26;9.67;;;7.47;;
16693;SDS011;39538;52.196;9.892;2022-11-20T08:22:56;9.90;;;9.00;;
16693;SDS011;39538;52.196;9.892;2022-11-20T08:25:23;10.30;;;9.30;;
16693;SDS011;39538;52.196;9.892;2022-11-20T08:27:50;8.10;;;7.30;;
16693;SDS011;39538;52.196;9.892;2022-11-20T08:30:16;9.27;;;8.47;;
16693;SDS011;39538;52.196;9.892;2022-11-20T08:32:43;9.93;;;9.03;;
16693;SDS011;39538;52.196;9.892;2022-11-20T08:35:09;11.63;;;10.47;;
16693;SDS011;39538;52.196;9.892;2022-11-20T08:37:36;15.03;;;11.87;;
16693;SDS011;39538;52.196;9.892;2022-11-20T08:40:08;9.87;;;8.90;;
16693;SDS011;39538;52.196;9.892;2022-11-20T08:42:36;6.90;;;6.20;;
16693;SDS011;39538;52.196;9.892;2022-11-20T08:45:02;6.10;;;5.50;;
16693;SDS011;39538;52.196;9.892;2022-11-20T08:47:29;4.77;;;4.30;;
16693;SDS011;39538;52.196;9.892;2022-11-20T08:49:56;5.13;;;4.07;;
16693;SDS011;39538;52.196;9.892;2022-11-20T08:52:22;5.03;;;4.33;;
16693;SDS011;39538;52.196;9.892;2022-11-20T08:54:49;4.53;;;3.53;;
16693;SDS011;39538;52.196;9.892;2022-11-20T08:57:17;6.23;;;5.67;;
16693;SDS011;39538;52.196;9.892;2022-11-20T08:59:43;5.60;;;4.90;;
16693;SDS011;39538;52.196;9.892;2022-11-20T09:02:10;5.50;;;5.03;;
16693;SDS011;39538;52.196;9.892;2022-11-20T09:04:37;6.43;;;4.97;;
16693;SDS011;39538;52.196;9.892;2022-11-20T09:07:03;6.47;;;5.83;;
16693;SDS011;39538;52.196;9.892;2022-11-20T09:09:30;3.77;;;3.47;;
16693;SDS011;39538;52.196;9.892;2022-11-20T09:11:57;5.30;;;4.73;;
16693;SDS011;39538;52.196;9.892;2022-11-20T09:14:25;4.83;;;4.33;;
16693;SDS011;39538;52.196;9.892;2022-11-20T09:16:54;3.90;;;3.53;;
16693;SDS011;39538;52.196;9.892;2022-11-20T09:19:20;4.40;;;4.00;;
16693;SDS011;39538;52.196;9.892;2022-11-20T09:21:47;4.63;;;4.00;;
16693;SDS011;39538;52.196;9.892;2022-11-20T09:24:13;4.73;;;4.33;;
16693;SDS011;39538;52.196;9.892;2022-11-20T09:26:40;6.63;;;3.53;;
16693;SDS011;39538;52.196;9.892;2022-11-20T09:29:06;5.20;;;4.70;;
16693;SDS011;39538;52.196;9.892;2022-11-20T09:31:34;5.63;;;5.10;;
16693;SDS011;39538;52.196;9.892;2022-11-20T09:34:01;4.97;;;4.27;;
16693;SDS011;39538;52.196;9.892;2022-11-20T09:36:27;3.43;;;3.13;;
16693;SDS011;39538;52.196;9.892;2022-11-20T09:38:54;5.03;;;3.40;;
16693;SDS011;39538;52.196;9.892;2022-11-20T09:44:17;4.53;;;3.60;;
16693;SDS011;39538;52.196;9.892;2022-11-20T09:46:55;4.30;;;3.70;;
16693;SDS011;39538;52.196;9.892;2022-11-20T09:49:28;4.07;;;3.67;;
16693;SDS011;39538;52.196;9.892;2022-11-20T09:52:06;20.43;;;5.23;;
16693;SDS011;39538;52.196;9.892;2022-11-20T09:54:43;4.13;;;3.83;;
16693;SDS011;39538;52.196;9.892;2022-11-20T09:57:10;4.67;;;4.27;;
16693;SDS011;39538;52.196;9.892;2022-11-20T09:59:40;5.00;;;4.50;;
16693;SDS011;39538;52.196;9.892;2022-11-20T10:02:14;3.67;;;3.33;;
16693;SDS011;39538;52.196;9.892;2022-11-20T10:04:47;5.13;;;4.67;;
16693;SDS011;39538;52.196;9.892;2022-11-20T10:07:19;5.17;;;4.67;;
16693;SDS011;39538;52.196;9.892;2022-11-20T10:09:50;5.47;;;5.07;;
16693;SDS011;39538;52.196;9.892;2022-11-20T10:12:23;4.47;;;4.03;;
16693;SDS011;39538;52.196;9.892;2022-11-20T10:15:03;4.60;;;4.17;;
16693;SDS011;39538;52.196;9.892;2022-11-20T10:17:46;4.00;;;3.60;;
16693;SDS011;39538;52.196;9.892;2022-11-20T10:20:28;5.03;;;4.63;;
16693;SDS011;39538;52.196;9.892;2022-11-20T10:23:08;4.80;;;4.40;;
16693;SDS011;39538;52.196;9.892;2022-11-20T10:25:50;4.63;;;4.23;;
16693;SDS011;39538;52.196;9.892;2022-11-20T10:28:40;5.30;;;4.90;;
16693;SDS011;39538;52.196;9.892;2022-11-20T10:31:25;5.57;;;5.07;;
16693;SDS011;39538;52.196;9.892;2022-11-20T10:33:57;5.90;;;5.40;;
16693;SDS011;39538;52.196;9.892;2022-11-20T10:36:30;6.70;;;6.20;;
16693;SDS011;39538;52.196;9.892;2022-11-20T10:39:04;6.70;;;6.10;;
16693;SDS011;39538;52.196;9.892;2022-11-20T10:41:38;7.00;;;6.40;;
16693;SDS011;39538;52.196;9.892;2022-11-20T10:44:09;8.37;;;6.90;;
16693;SDS011;39538;52.196;9.892;2022-11-20T10:46:40;7.53;;;6.83;;
16693;SDS011;39538;52.196;9.892;2022-11-20T10:49:15;8.37;;;7.57;;
16693;SDS011;39538;52.196;9.892;2022-11-20T10:51:47;7.53;;;6.83;;
16693;SDS011;39538;52.196;9.892;2022-11-20T10:54:26;7.83;;;7.10;;
16693;SDS011;39538;52.196;9.892;2022-11-20T10:57:03;8.63;;;7.83;;
16693;SDS011;39538;52.196;9.892;2022-11-20T10:59:45;7.60;;;6.90;;
16693;SDS011;39538;52.196;9.892;2022-11-20T11:02:22;8.37;;;7.57;;
16693;SDS011;39538;52.196;9.892;2022-11-20T11:04:52;9.53;;;6.93;;
16693;SDS011;39538;52.196;9.892;2022-11-20T11:07:20;9.10;;;7.03;;
16693;SDS011;39538;52.196;9.892;2022-11-20T11:09:50;5.67;;;5.17;;
16693;SDS011;39538;52.196;9.892;2022-11-20T11:12:19;5.73;;;4.83;;
16693;SDS011;39538;52.196;9.892;2022-11-20T11:14:48;7.57;;;6.80;;
16693;SDS011;39538;52.196;9.892;2022-11-20T11:17:23;7.63;;;4.47;;
16693;SDS011;39538;52.196;9.892;2022-11-20T11:20:14;6.37;;;5.77;;
16693;SDS011;39538;52.196;9.892;2022-11-20T11:22:44;5.70;;;5.20;;
16693;SDS011;39538;52.196;9.892;2022-11-20T11:25:18;6.40;;;5.80;;
16693;SDS011;39538;52.196;9.892;2022-11-20T11:27:46;8.27;;;5.47;;
16693;SDS011;39538;52.196;9.892;2022-11-20T11:30:15;6.83;;;5.83;;
16693;SDS011;39538;52.196;9.892;2022-11-20T11:32:43;7.53;;;5.87;;
16693;SDS011;39538;52.196;9.892;2022-11-20T11:35:20;6.27;;;5.70;;
16693;SDS011;39538;52.196;9.892;2022-11-20T11:37:48;5.87;;;5.10;;
16693;SDS011;39538;52.196;9.892;2022-11-20T11:40:16;6.07;;;5.57;;
16693;SDS011;39538;52.196;9.892;2022-11-20T11:42:46;5.33;;;4.90;;
16693;SDS011;39538;52.196;9.892;2022-11-20T11:45:20;5.60;;;5.10;;
16693;SDS011;39538;52.196;9.892;2022-11-20T11:47:46;7.70;;;5.43;;
16693;SDS011;39538;52.196;9.892;2022-11-20T11:50:15;11.97;;;8.03;;
16693;SDS011;39538;52.196;9.892;2022-11-20T11:52:47;6.23;;;5.37;;
16693;SDS011;39538;52.196;9.892;2022-11-20T11:55:23;5.93;;;4.40;;
16693;SDS011;39538;52.196;9.892;2022-11-20T11:57:55;10.07;;;5.70;;
16693;SDS011;39538;52.196;9.892;2022-11-20T12:00:30;5.63;;;5.13;;
16693;SDS011;39538;52.196;9.892;2022-11-20T12:03:03;6.17;;;5.67;;
16693;SDS011;39538;52.196;9.892;2022-11-20T12:05:36;7.40;;;6.63;;
16693;SDS011;39538;52.196;9.892;2022-11-20T12:08:12;5.83;;;5.23;;
16693;SDS011;39538;52.196;9.892;2022-11-20T12:10:45;5.83;;;5.23;;
16693;SDS011;39538;52.196;9.892;2022-11-20T12:16:07;7.83;;;5.50;;
16693;SDS011;39538;52.196;9.892;2022-11-20T12:18:38;6.53;;;5.90;;
16693;SDS011;39538;52.196;9.892;2022-11-20T12:21:09;5.53;;;5.00;;
16693;SDS011;39538;52.196;9.892;2022-11-20T12:23:51;5.80;;;5.00;;
16693;SDS011;39538;52.196;9.892;2022-11-20T12:26:32;6.63;;;5.43;;
16693;SDS011;39538;52.196;9.892;2022-11-20T12:29:09;6.37;;;5.83;;
16693;SDS011;39538;52.196;9.892;2022-11-20T12:34:47;5.53;;;4.97;;
16693;SDS011;39538;52.196;9.892;2022-11-20T12:37:27;6.70;;;6.20;;
16693;SDS011;39538;52.196;9.892;2022-11-20T12:40:06;6.60;;;5.90;;
16693;SDS011;39538;52.196;9.892;2022-11-20T12:42:49;6.23;;;5.63;;
16693;SDS011;39538;52.196;9.892;2022-11-20T12:45:53;9.53;;;7.00;;
16693;SDS011;39538;52.196;9.892;2022-11-20T12:48:41;5.80;;;5.20;;
16693;SDS011;39538;52.196;9.892;2022-11-20T12:51:22;5.93;;;4.80;;
16693;SDS011;39538;52.196;9.892;2022-11-20T12:54:24;6.53;;;5.87;;
16693;SDS011;39538;52.196;9.892;2022-11-20T12:57:09;7.57;;;5.77;;
16693;SDS011;39538;52.196;9.892;2022-11-20T12:59:49;7.50;;;6.80;;
16693;SDS011;39538;52.196;9.892;2022-11-20T13:02:27;7.13;;;6.43;;
16693;SDS011;39538;52.196;9.892;2022-11-20T13:05:13;5.47;;;4.97;;
16693;SDS011;39538;52.196;9.892;2022-11-20T13:07:45;7.33;;;5.90;;
16693;SDS011;39538;52.196;9.892;2022-11-20T13:10:14;6.60;;;6.00;;
16693;SDS011;39538;52.196;9.892;2022-11-20T13:12:49;6.13;;;5.57;;
16693;SDS011;39538;52.196;9.892;2022-11-20T13:15:26;6.50;;;5.33;;
16693;SDS011;39538;52.196;9.892;2022-11-20T13:18:04;7.33;;;6.63;;
16693;SDS011;39538;52.196;9.892;2022-11-20T13:20:35;8.33;;;6.00;;
16693;SDS011;39538;52.196;9.892;2022-11-20T13:23:07;7.43;;;6.83;;
16693;SDS011;39538;52.196;9.892;2022-11-20T13:25:34;6.53;;;5.73;;
16693;SDS011;39538;52.196;9.892;2022-11-20T13:28:04;7.13;;;6.43;;
16693;SDS011;39538;52.196;9.892;2022-11-20T13:30:51;7.77;;;6.97;;
16693;SDS011;39538;52.196;9.892;2022-11-20T13:33:22;8.23;;;7.33;;
16693;SDS011;39538;52.196;9.892;2022-11-20T13:35:54;6.97;;;6.30;;
16693;SDS011;39538;52.196;9.892;2022-11-20T13:38:23;6.20;;;5.60;;
16693;SDS011;39538;52.196;9.892;2022-11-20T13:40:51;7.20;;;6.50;;
16693;SDS011;39538;52.196;9.892;2022-11-20T13:43:21;6.57;;;6.07;;
16693;SDS011;39538;52.196;9.892;2022-11-20T13:45:56;8.00;;;7.20;;
16693;SDS011;39538;52.196;9.892;2022-11-20T13:48:26;6.53;;;5.93;;
16693;SDS011;39538;52.196;9.892;2022-11-20T13:50:57;7.97;;;7.30;;
16693;SDS011;39538;52.196;9.892;2022-11-20T13:56:34;7.33;;;6.70;;
16693;SDS011;39538;52.196;9.892;2022-11-20T13:59:25;8.77;;;7.60;;
16693;SDS011;39538;52.196;9.892;2022-11-20T14:02:08;9.60;;;8.70;;
16693;SDS011;39538;52.196;9.892;2022-11-20T14:04:38;6.97;;;6.37;;
16693;SDS011;39538;52.196;9.892;2022-11-20T14:07:09;5.80;;;5.30;;
16693;SDS011;39538;52.196;9.892;2022-11-20T14:09:36;5.60;;;5.10;;
16693;SDS011;39538;52.196;9.892;2022-11-20T14:12:03;5.27;;;4.63;;
16693;SDS011;39538;52.196;9.892;2022-11-20T14:14:47;7.23;;;5.03;;
16693;SDS011;39538;52.196;9.892;2022-11-20T14:17:17;8.23;;;4.47;;
16693;SDS011;39538;52.196;9.892;2022-11-20T14:19:46;6.17;;;4.63;;
16693;SDS011;39538;52.196;9.892;2022-11-20T14:22:18;6.47;;;5.90;;
16693;SDS011;39538;52.196;9.892;2022-11-20T14:24:46;5.83;;;5.30;;
16693;SDS011;39538;52.196;9.892;2022-11-20T14:27:13;6.43;;;5.83;;
16693;SDS011;39538;52.196;9.892;2022-11-20T14:29:41;10.33;;;5.30;;
16693;SDS011;39538;52.196;9.892;2022-11-20T14:32:11;5.13;;;4.63;;
16693;SDS011;39538;52.196;9.892;2022-11-20T14:34:40;7.63;;;5.33;;
16693;SDS011;39538;52.196;9.892;2022-11-20T14:37:10;6.43;;;5.87;;
16693;SDS011;39538;52.196;9.892;2022-11-20T14:39:40;6.13;;;5.53;;
16693;SDS011;39538;52.196;9.892;2022-11-20T14:42:14;8.63;;;7.83;;
16693;SDS011;39538;52.196;9.892;2022-11-20T14:44:41;6.40;;;5.80;;
16693;SDS011;39538;52.196;9.892;2022-11-20T14:47:11;6.70;;;6.10;;
16693;SDS011;39538;52.196;9.892;2022-11-20T14:49:41;5.60;;;4.63;;
16693;SDS011;39538;52.196;9.892;2022-11-20T14:52:12;6.03;;;5.47;;
16693;SDS011;39538;52.196;9.892;2022-11-20T14:54:44;7.83;;;6.33;;
16693;SDS011;39538;52.196;9.892;2022-11-20T14:57:19;9.00;;;8.03;;
16693;SDS011;39538;52.196;9.892;2022-11-20T14:59:48;7.30;;;6.60;;
16693;SDS011;39538;52.196;9.892;2022-11-20T15:02:16;10.00;;;7.00;;
16693;SDS011;39538;52.196;9.892;2022-11-20T15:04:46;8.93;;;6.67;;
16693;SDS011;39538;52.196;9.892;2022-11-20T15:07:23;5.40;;;4.90;;
16693;SDS011;39538;52.196;9.892;2022-11-20T15:09:59;6.43;;;5.80;;
16693;SDS011;39538;52.196;9.892;2022-11-20T15:12:26;6.13;;;5.60;;